Terminal Aerodrome Forecast
Issued by NWS

Current Version | Previous Version | Text Only | Print | Product List | Glossary On
Versions: 1 2 3 4 5 6 7 8 9 10 11 12 13 14 15 16 17 18 19 20 21 22 23 24 25 26 27 28 29 30 31 32 33 34 35 36 37 38 39 40 41 42 43 44 45
000
FTUS45 KGJT 280812 AAA
TAFRIL
TAF AMD
KRIL 280812Z 2808/2906 VRB05KT P6SM VCSH SCT040 OVC060
      TEMPO 2808/2810 -SHRA BKN040
     FM281900 33008KT P6SM BKN090
     FM290200 13004KT P6SM SCT100=

USA.gov is the U.S. government's official web portal to all federal, state and local government web resources and services.